sensor_id;sensor_type;location;lat;lon;timestamp;P1;durP1;ratioP1;P2;durP2;ratioP2
18084;SDS011;9169;44.492;11.372;2022-10-16T00:01:52;78.67;;;19.17;;
18084;SDS011;9169;44.492;11.372;2022-10-16T00:04:19;78.40;;;18.40;;
18084;SDS011;9169;44.492;11.372;2022-10-16T00:06:46;75.83;;;16.50;;
18084;SDS011;9169;44.492;11.372;2022-10-16T00:09:13;73.80;;;14.20;;
18084;SDS011;9169;44.492;11.372;2022-10-16T00:11:41;75.80;;;16.67;;
18084;SDS011;9169;44.492;11.372;2022-10-16T00:14:09;73.90;;;14.67;;
18084;SDS011;9169;44.492;11.372;2022-10-16T00:16:37;75.97;;;15.20;;
18084;SDS011;9169;44.492;11.372;2022-10-16T00:19:04;76.37;;;17.17;;
18084;SDS011;9169;44.492;11.372;2022-10-16T00:21:32;76.53;;;17.20;;
18084;SDS011;9169;44.492;11.372;2022-10-16T00:24:00;74.40;;;15.47;;
18084;SDS011;9169;44.492;11.372;2022-10-16T00:26:29;78.97;;;18.70;;
18084;SDS011;9169;44.492;11.372;2022-10-16T00:28:59;79.13;;;16.20;;
18084;SDS011;9169;44.492;11.372;2022-10-16T00:31:26;75.43;;;15.97;;
18084;SDS011;9169;44.492;11.372;2022-10-16T00:33:53;76.47;;;18.20;;
18084;SDS011;9169;44.492;11.372;2022-10-16T00:36:21;75.33;;;15.93;;
18084;SDS011;9169;44.492;11.372;2022-10-16T00:38:50;77.87;;;16.50;;
18084;SDS011;9169;44.492;11.372;2022-10-16T00:41:19;75.30;;;16.23;;
18084;SDS011;9169;44.492;11.372;2022-10-16T00:43:48;79.20;;;16.37;;
18084;SDS011;9169;44.492;11.372;2022-10-16T00:46:19;74.40;;;15.13;;
18084;SDS011;9169;44.492;11.372;2022-10-16T00:48:49;78.43;;;20.40;;
18084;SDS011;9169;44.492;11.372;2022-10-16T00:51:21;77.97;;;16.37;;
18084;SDS011;9169;44.492;11.372;2022-10-16T00:53:51;77.00;;;20.37;;
18084;SDS011;9169;44.492;11.372;2022-10-16T00:56:19;75.83;;;16.40;;
18084;SDS011;9169;44.492;11.372;2022-10-16T00:58:47;82.03;;;18.10;;
18084;SDS011;9169;44.492;11.372;2022-10-16T01:01:15;79.13;;;16.27;;
18084;SDS011;9169;44.492;11.372;2022-10-16T01:03:46;76.50;;;18.90;;
18084;SDS011;9169;44.492;11.372;2022-10-16T01:06:18;80.20;;;18.50;;
18084;SDS011;9169;44.492;11.372;2022-10-16T01:08:53;76.20;;;16.27;;
18084;SDS011;9169;44.492;11.372;2022-10-16T01:11:34;76.43;;;17.10;;
18084;SDS011;9169;44.492;11.372;2022-10-16T01:14:09;80.27;;;17.93;;
18084;SDS011;9169;44.492;11.372;2022-10-16T01:16:43;74.20;;;15.00;;
18084;SDS011;9169;44.492;11.372;2022-10-16T01:19:16;76.13;;;15.10;;
18084;SDS011;9169;44.492;11.372;2022-10-16T01:21:51;74.17;;;15.40;;
18084;SDS011;9169;44.492;11.372;2022-10-16T01:24:24;73.97;;;15.20;;
18084;SDS011;9169;44.492;11.372;2022-10-16T01:27:10;78.10;;;16.40;;
18084;SDS011;9169;44.492;11.372;2022-10-16T01:29:41;78.43;;;19.00;;
18084;SDS011;9169;44.492;11.372;2022-10-16T01:32:16;75.63;;;16.07;;
18084;SDS011;9169;44.492;11.372;2022-10-16T01:34:49;77.27;;;18.87;;
18084;SDS011;9169;44.492;11.372;2022-10-16T01:40:08;76.70;;;16.37;;
18084;SDS011;9169;44.492;11.372;2022-10-16T01:42:39;73.93;;;17.47;;
18084;SDS011;9169;44.492;11.372;2022-10-16T01:45:08;74.07;;;16.27;;
18084;SDS011;9169;44.492;11.372;2022-10-16T01:47:39;74.97;;;18.73;;
18084;SDS011;9169;44.492;11.372;2022-10-16T01:50:08;120.90;;;62.40;;
18084;SDS011;9169;44.492;11.372;2022-10-16T01:52:37;83.00;;;20.90;;
18084;SDS011;9169;44.492;11.372;2022-10-16T01:55:07;76.13;;;16.80;;
18084;SDS011;9169;44.492;11.372;2022-10-16T01:57:36;75.60;;;15.40;;
18084;SDS011;9169;44.492;11.372;2022-10-16T02:00:09;76.90;;;19.70;;
18084;SDS011;9169;44.492;11.372;2022-10-16T02:02:38;74.27;;;16.83;;
18084;SDS011;9169;44.492;11.372;2022-10-16T02:05:09;75.30;;;14.40;;
18084;SDS011;9169;44.492;11.372;2022-10-16T02:07:42;74.83;;;16.10;;
18084;SDS011;9169;44.492;11.372;2022-10-16T02:10:09;75.10;;;17.80;;
18084;SDS011;9169;44.492;11.372;2022-10-16T02:12:36;73.97;;;15.40;;
18084;SDS011;9169;44.492;11.372;2022-10-16T02:15:09;74.90;;;15.07;;
18084;SDS011;9169;44.492;11.372;2022-10-16T02:17:36;73.10;;;16.17;;
18084;SDS011;9169;44.492;11.372;2022-10-16T02:20:04;75.20;;;15.63;;
18084;SDS011;9169;44.492;11.372;2022-10-16T02:22:32;76.07;;;16.87;;
18084;SDS011;9169;44.492;11.372;2022-10-16T02:25:02;80.23;;;16.00;;
18084;SDS011;9169;44.492;11.372;2022-10-16T02:27:35;76.50;;;15.13;;
18084;SDS011;9169;44.492;11.372;2022-10-16T02:30:11;77.90;;;19.63;;
18084;SDS011;9169;44.492;11.372;2022-10-16T02:32:41;75.67;;;16.00;;
18084;SDS011;9169;44.492;11.372;2022-10-16T02:35:10;77.50;;;16.63;;
18084;SDS011;9169;44.492;11.372;2022-10-16T02:37:37;75.50;;;17.40;;
18084;SDS011;9169;44.492;11.372;2022-10-16T02:40:07;75.87;;;16.13;;
18084;SDS011;9169;44.492;11.372;2022-10-16T02:42:35;78.53;;;16.13;;
18084;SDS011;9169;44.492;11.372;2022-10-16T02:45:04;74.30;;;16.00;;
18084;SDS011;9169;44.492;11.372;2022-10-16T02:47:32;74.37;;;16.60;;
18084;SDS011;9169;44.492;11.372;2022-10-16T02:49:59;74.10;;;14.70;;
18084;SDS011;9169;44.492;11.372;2022-10-16T02:52:26;75.10;;;15.40;;
18084;SDS011;9169;44.492;11.372;2022-10-16T02:54:53;74.07;;;14.23;;
18084;SDS011;9169;44.492;11.372;2022-10-16T02:57:20;74.07;;;14.90;;
18084;SDS011;9169;44.492;11.372;2022-10-16T02:59:47;79.33;;;15.47;;
18084;SDS011;9169;44.492;11.372;2022-10-16T03:02:15;73.63;;;14.60;;
18084;SDS011;9169;44.492;11.372;2022-10-16T03:05:01;73.60;;;15.67;;
18084;SDS011;9169;44.492;11.372;2022-10-16T03:07:28;73.27;;;14.03;;
18084;SDS011;9169;44.492;11.372;2022-10-16T03:09:55;71.97;;;16.90;;
18084;SDS011;9169;44.492;11.372;2022-10-16T03:12:22;76.30;;;15.13;;
18084;SDS011;9169;44.492;11.372;2022-10-16T03:14:49;73.40;;;17.10;;
18084;SDS011;9169;44.492;11.372;2022-10-16T03:17:17;79.93;;;16.53;;
18084;SDS011;9169;44.492;11.372;2022-10-16T03:19:44;75.33;;;15.07;;
18084;SDS011;9169;44.492;11.372;2022-10-16T03:22:11;77.30;;;17.20;;
18084;SDS011;9169;44.492;11.372;2022-10-16T03:24:38;72.30;;;17.67;;
18084;SDS011;9169;44.492;11.372;2022-10-16T03:27:05;75.30;;;18.90;;
18084;SDS011;9169;44.492;11.372;2022-10-16T03:29:32;78.50;;;18.30;;
18084;SDS011;9169;44.492;11.372;2022-10-16T03:31:59;77.80;;;17.77;;
18084;SDS011;9169;44.492;11.372;2022-10-16T03:34:28;76.20;;;17.07;;
18084;SDS011;9169;44.492;11.372;2022-10-16T03:36:55;78.23;;;20.30;;
18084;SDS011;9169;44.492;11.372;2022-10-16T03:39:22;77.77;;;16.07;;
18084;SDS011;9169;44.492;11.372;2022-10-16T03:41:49;72.80;;;17.77;;
18084;SDS011;9169;44.492;11.372;2022-10-16T03:44:16;74.73;;;18.90;;
18084;SDS011;9169;44.492;11.372;2022-10-16T03:46:43;75.60;;;16.80;;
18084;SDS011;9169;44.492;11.372;2022-10-16T03:49:10;74.90;;;17.60;;
18084;SDS011;9169;44.492;11.372;2022-10-16T03:51:38;73.67;;;18.93;;
18084;SDS011;9169;44.492;11.372;2022-10-16T03:54:06;73.87;;;18.97;;
18084;SDS011;9169;44.492;11.372;2022-10-16T03:56:32;74.17;;;18.37;;
18084;SDS011;9169;44.492;11.372;2022-10-16T03:58:59;73.80;;;16.13;;
18084;SDS011;9169;44.492;11.372;2022-10-16T04:01:26;72.97;;;17.97;;
18084;SDS011;9169;44.492;11.372;2022-10-16T04:03:53;76.37;;;20.33;;
18084;SDS011;9169;44.492;11.372;2022-10-16T04:06:21;72.87;;;17.53;;
18084;SDS011;9169;44.492;11.372;2022-10-16T04:08:49;74.80;;;18.70;;
18084;SDS011;9169;44.492;11.372;2022-10-16T04:11:16;70.57;;;14.40;;
18084;SDS011;9169;44.492;11.372;2022-10-16T04:13:43;74.97;;;17.93;;
18084;SDS011;9169;44.492;11.372;2022-10-16T04:16:10;73.87;;;16.07;;
18084;SDS011;9169;44.492;11.372;2022-10-16T04:18:37;73.27;;;17.77;;
18084;SDS011;9169;44.492;11.372;2022-10-16T04:21:04;75.80;;;19.10;;
18084;SDS011;9169;44.492;11.372;2022-10-16T04:23:32;73.07;;;15.50;;
18084;SDS011;9169;44.492;11.372;2022-10-16T04:26:01;70.40;;;13.00;;
18084;SDS011;9169;44.492;11.372;2022-10-16T04:28:28;72.60;;;15.13;;
18084;SDS011;9169;44.492;11.372;2022-10-16T04:30:55;72.70;;;15.83;;
18084;SDS011;9169;44.492;11.372;2022-10-16T04:33:22;74.17;;;15.50;;
18084;SDS011;9169;44.492;11.372;2022-10-16T04:35:55;74.27;;;16.90;;
18084;SDS011;9169;44.492;11.372;2022-10-16T04:38:23;72.97;;;14.20;;
18084;SDS011;9169;44.492;11.372;2022-10-16T04:40:51;71.80;;;15.40;;
18084;SDS011;9169;44.492;11.372;2022-10-16T04:43:19;71.17;;;13.10;;
18084;SDS011;9169;44.492;11.372;2022-10-16T04:45:47;73.90;;;16.90;;
18084;SDS011;9169;44.492;11.372;2022-10-16T04:48:15;69.57;;;14.43;;
18084;SDS011;9169;44.492;11.372;2022-10-16T04:50:42;74.00;;;16.53;;
18084;SDS011;9169;44.492;11.372;2022-10-16T04:53:09;75.03;;;14.83;;
18084;SDS011;9169;44.492;11.372;2022-10-16T04:55:36;72.60;;;15.50;;
18084;SDS011;9169;44.492;11.372;2022-10-16T04:58:03;73.37;;;16.40;;
18084;SDS011;9169;44.492;11.372;2022-10-16T05:00:32;70.93;;;15.63;;
18084;SDS011;9169;44.492;11.372;2022-10-16T05:02:59;70.17;;;15.50;;
18084;SDS011;9169;44.492;11.372;2022-10-16T05:05:26;70.60;;;15.83;;
18084;SDS011;9169;44.492;11.372;2022-10-16T05:07:54;72.13;;;16.03;;
18084;SDS011;9169;44.492;11.372;2022-10-16T05:10:21;73.33;;;15.90;;
18084;SDS011;9169;44.492;11.372;2022-10-16T05:12:47;78.50;;;17.90;;
18084;SDS011;9169;44.492;11.372;2022-10-16T05:15:14;74.47;;;18.80;;
18084;SDS011;9169;44.492;11.372;2022-10-16T05:17:43;74.27;;;15.53;;
18084;SDS011;9169;44.492;11.372;2022-10-16T05:20:10;71.97;;;18.30;;
18084;SDS011;9169;44.492;11.372;2022-10-16T05:22:37;75.17;;;19.77;;
18084;SDS011;9169;44.492;11.372;2022-10-16T05:25:04;71.87;;;16.20;;
18084;SDS011;9169;44.492;11.372;2022-10-16T05:27:32;72.87;;;18.87;;
18084;SDS011;9169;44.492;11.372;2022-10-16T05:29:59;73.40;;;19.23;;
18084;SDS011;9169;44.492;11.372;2022-10-16T05:32:26;74.67;;;18.67;;
18084;SDS011;9169;44.492;11.372;2022-10-16T05:34:54;75.20;;;19.10;;
18084;SDS011;9169;44.492;11.372;2022-10-16T05:37:21;74.10;;;19.47;;
18084;SDS011;9169;44.492;11.372;2022-10-16T05:39:48;72.33;;;15.87;;
18084;SDS011;9169;44.492;11.372;2022-10-16T05:42:15;72.70;;;18.47;;
18084;SDS011;9169;44.492;11.372;2022-10-16T05:44:41;73.20;;;18.13;;
18084;SDS011;9169;44.492;11.372;2022-10-16T05:47:09;74.50;;;18.13;;
18084;SDS011;9169;44.492;11.372;2022-10-16T05:49:36;72.40;;;16.73;;
18084;SDS011;9169;44.492;11.372;2022-10-16T05:52:05;73.20;;;17.83;;
18084;SDS011;9169;44.492;11.372;2022-10-16T05:54:32;68.67;;;13.83;;
18084;SDS011;9169;44.492;11.372;2022-10-16T05:56:59;71.47;;;16.37;;
18084;SDS011;9169;44.492;11.372;2022-10-16T05:59:27;73.00;;;18.17;;
18084;SDS011;9169;44.492;11.372;2022-10-16T06:01:54;72.20;;;17.50;;
18084;SDS011;9169;44.492;11.372;2022-10-16T06:04:21;74.87;;;17.90;;
18084;SDS011;9169;44.492;11.372;2022-10-16T06:06:47;73.50;;;18.03;;
18084;SDS011;9169;44.492;11.372;2022-10-16T06:09:16;73.93;;;19.60;;
18084;SDS011;9169;44.492;11.372;2022-10-16T06:11:43;76.07;;;19.07;;
18084;SDS011;9169;44.492;11.372;2022-10-16T06:14:10;80.37;;;22.00;;
18084;SDS011;9169;44.492;11.372;2022-10-16T06:16:37;70.37;;;15.90;;
18084;SDS011;9169;44.492;11.372;2022-10-16T06:19:04;73.60;;;16.53;;
18084;SDS011;9169;44.492;11.372;2022-10-16T06:21:33;74.50;;;17.40;;
18084;SDS011;9169;44.492;11.372;2022-10-16T06:24:00;75.53;;;23.47;;
18084;SDS011;9169;44.492;11.372;2022-10-16T06:26:29;81.40;;;26.13;;
18084;SDS011;9169;44.492;11.372;2022-10-16T06:28:57;79.10;;;30.30;;
18084;SDS011;9169;44.492;11.372;2022-10-16T06:31:25;76.53;;;24.33;;
18084;SDS011;9169;44.492;11.372;2022-10-16T06:33:56;85.40;;;27.83;;
18084;SDS011;9169;44.492;11.372;2022-10-16T06:36:24;74.90;;;27.53;;
18084;SDS011;9169;44.492;11.372;2022-10-16T06:38:51;78.33;;;29.50;;
18084;SDS011;9169;44.492;11.372;2022-10-16T06:41:19;77.97;;;29.03;;
18084;SDS011;9169;44.492;11.372;2022-10-16T06:43:49;78.27;;;30.10;;
18084;SDS011;9169;44.492;11.372;2022-10-16T06:46:18;75.60;;;25.60;;
18084;SDS011;9169;44.492;11.372;2022-10-16T06:48:47;73.20;;;26.40;;
18084;SDS011;9169;44.492;11.372;2022-10-16T06:51:14;78.83;;;24.33;;
18084;SDS011;9169;44.492;11.372;2022-10-16T06:53:43;75.90;;;27.00;;
18084;SDS011;9169;44.492;11.372;2022-10-16T06:56:14;76.40;;;29.20;;
18084;SDS011;9169;44.492;11.372;2022-10-16T06:58:43;73.50;;;25.77;;
18084;SDS011;9169;44.492;11.372;2022-10-16T07:01:12;75.60;;;28.03;;
18084;SDS011;9169;44.492;11.372;2022-10-16T07:03:41;80.43;;;27.40;;
18084;SDS011;9169;44.492;11.372;2022-10-16T07:06:10;82.03;;;29.80;;
18084;SDS011;9169;44.492;11.372;2022-10-16T07:08:39;78.27;;;30.80;;
18084;SDS011;9169;44.492;11.372;2022-10-16T07:11:08;78.20;;;29.60;;
18084;SDS011;9169;44.492;11.372;2022-10-16T07:13:36;82.80;;;32.13;;
18084;SDS011;9169;44.492;11.372;2022-10-16T07:16:04;78.47;;;26.87;;
18084;SDS011;9169;44.492;11.372;2022-10-16T07:18:33;78.47;;;29.07;;
18084;SDS011;9169;44.492;11.372;2022-10-16T07:21:05;78.93;;;24.23;;
18084;SDS011;9169;44.492;11.372;2022-10-16T07:23:32;80.13;;;31.60;;
18084;SDS011;9169;44.492;11.372;2022-10-16T07:25:59;80.87;;;28.60;;
18084;SDS011;9169;44.492;11.372;2022-10-16T07:28:27;79.27;;;27.60;;
18084;SDS011;9169;44.492;11.372;2022-10-16T07:30:54;78.73;;;27.80;;
18084;SDS011;9169;44.492;11.372;2022-10-16T07:33:21;79.10;;;25.60;;
18084;SDS011;9169;44.492;11.372;2022-10-16T07:35:50;78.70;;;24.90;;
18084;SDS011;9169;44.492;11.372;2022-10-16T07:38:18;81.47;;;30.20;;
18084;SDS011;9169;44.492;11.372;2022-10-16T07:40:46;82.97;;;29.97;;
18084;SDS011;9169;44.492;11.372;2022-10-16T07:43:13;77.70;;;24.13;;
18084;SDS011;9169;44.492;11.372;2022-10-16T07:45:47;78.07;;;24.07;;
18084;SDS011;9169;44.492;11.372;2022-10-16T07:48:14;79.33;;;25.60;;
18084;SDS011;9169;44.492;11.372;2022-10-16T07:50:42;84.70;;;32.10;;
18084;SDS011;9169;44.492;11.372;2022-10-16T07:53:11;82.27;;;26.90;;
18084;SDS011;9169;44.492;11.372;2022-10-16T07:55:38;79.40;;;22.20;;
18084;SDS011;9169;44.492;11.372;2022-10-16T07:58:05;80.70;;;28.10;;
18084;SDS011;9169;44.492;11.372;2022-10-16T08:00:32;80.73;;;23.60;;
18084;SDS011;9169;44.492;11.372;2022-10-16T08:02:59;85.60;;;26.60;;
18084;SDS011;9169;44.492;11.372;2022-10-16T08:05:27;85.97;;;28.37;;
18084;SDS011;9169;44.492;11.372;2022-10-16T08:07:54;83.43;;;33.73;;
18084;SDS011;9169;44.492;11.372;2022-10-16T08:10:26;89.10;;;35.33;;
18084;SDS011;9169;44.492;11.372;2022-10-16T08:12:56;94.17;;;39.07;;
18084;SDS011;9169;44.492;11.372;2022-10-16T08:15:23;90.57;;;40.67;;
18084;SDS011;9169;44.492;11.372;2022-10-16T08:17:54;85.80;;;31.83;;
18084;SDS011;9169;44.492;11.372;2022-10-16T08:20:25;86.97;;;36.37;;
18084;SDS011;9169;44.492;11.372;2022-10-16T08:22:53;111.10;;;56.23;;
18084;SDS011;9169;44.492;11.372;2022-10-16T08:25:20;94.63;;;35.53;;
18084;SDS011;9169;44.492;11.372;2022-10-16T08:27:49;93.57;;;41.93;;
18084;SDS011;9169;44.492;11.372;2022-10-16T08:30:17;92.00;;;37.90;;
18084;SDS011;9169;44.492;11.372;2022-10-16T08:32:44;84.47;;;31.67;;
18084;SDS011;9169;44.492;11.372;2022-10-16T08:35:12;85.07;;;31.97;;
18084;SDS011;9169;44.492;11.372;2022-10-16T08:37:40;87.90;;;30.93;;
18084;SDS011;9169;44.492;11.372;2022-10-16T08:40:12;87.77;;;34.93;;
18084;SDS011;9169;44.492;11.372;2022-10-16T08:42:53;84.10;;;32.27;;
18084;SDS011;9169;44.492;11.372;2022-10-16T08:45:39;86.10;;;33.50;;
18084;SDS011;9169;44.492;11.372;2022-10-16T08:48:19;89.53;;;37.83;;
18084;SDS011;9169;44.492;11.372;2022-10-16T08:50:49;86.07;;;35.07;;
18084;SDS011;9169;44.492;11.372;2022-10-16T08:53:20;85.03;;;33.20;;
18084;SDS011;9169;44.492;11.372;2022-10-16T08:55:52;88.77;;;32.77;;
18084;SDS011;9169;44.492;11.372;2022-10-16T08:58:21;86.47;;;33.43;;
18084;SDS011;9169;44.492;11.372;2022-10-16T09:00:53;86.57;;;34.17;;
18084;SDS011;9169;44.492;11.372;2022-10-16T09:03:24;87.23;;;32.30;;
18084;SDS011;9169;44.492;11.372;2022-10-16T09:06:07;87.17;;;29.50;;
18084;SDS011;9169;44.492;11.372;2022-10-16T09:08:44;83.87;;;28.90;;
18084;SDS011;9169;44.492;11.372;2022-10-16T09:11:22;86.17;;;32.97;;
18084;SDS011;9169;44.492;11.372;2022-10-16T09:13:59;87.23;;;33.43;;
18084;SDS011;9169;44.492;11.372;2022-10-16T09:16:32;81.80;;;23.40;;
18084;SDS011;9169;44.492;11.372;2022-10-16T09:19:04;84.83;;;19.60;;
18084;SDS011;9169;44.492;11.372;2022-10-16T09:21:40;85.20;;;26.37;;
18084;SDS011;9169;44.492;11.372;2022-10-16T09:24:10;89.13;;;26.57;;
18084;SDS011;9169;44.492;11.372;2022-10-16T09:26:39;90.00;;;31.50;;
18084;SDS011;9169;44.492;11.372;2022-10-16T09:29:08;96.37;;;39.63;;
18084;SDS011;9169;44.492;11.372;2022-10-16T09:31:37;102.70;;;54.00;;
18084;SDS011;9169;44.492;11.372;2022-10-16T09:34:04;116.47;;;71.27;;
18084;SDS011;9169;44.492;11.372;2022-10-16T09:36:35;113.10;;;63.73;;
18084;SDS011;9169;44.492;11.372;2022-10-16T09:39:09;101.00;;;49.90;;
18084;SDS011;9169;44.492;11.372;2022-10-16T09:41:37;102.10;;;46.90;;
18084;SDS011;9169;44.492;11.372;2022-10-16T09:44:14;104.63;;;44.70;;
18084;SDS011;9169;44.492;11.372;2022-10-16T09:46:45;109.80;;;54.43;;
18084;SDS011;9169;44.492;11.372;2022-10-16T09:49:20;106.67;;;59.37;;
18084;SDS011;9169;44.492;11.372;2022-10-16T09:51:49;96.00;;;42.03;;
18084;SDS011;9169;44.492;11.372;2022-10-16T09:54:19;99.60;;;45.17;;
18084;SDS011;9169;44.492;11.372;2022-10-16T09:56:47;95.37;;;42.90;;
18084;SDS011;9169;44.492;11.372;2022-10-16T09:59:18;112.63;;;60.90;;
18084;SDS011;9169;44.492;11.372;2022-10-16T10:01:49;113.03;;;60.27;;
18084;SDS011;9169;44.492;11.372;2022-10-16T10:04:17;101.37;;;47.03;;
18084;SDS011;9169;44.492;11.372;2022-10-16T10:06:46;113.97;;;58.70;;
18084;SDS011;9169;44.492;11.372;2022-10-16T10:09:16;117.80;;;74.17;;
18084;SDS011;9169;44.492;11.372;2022-10-16T10:11:47;102.60;;;50.93;;
18084;SDS011;9169;44.492;11.372;2022-10-16T10:14:19;102.17;;;44.90;;
18084;SDS011;9169;44.492;11.372;2022-10-16T10:16:49;100.00;;;45.53;;
18084;SDS011;9169;44.492;11.372;2022-10-16T10:19:19;97.87;;;41.27;;
18084;SDS011;9169;44.492;11.372;2022-10-16T10:21:48;98.47;;;38.80;;
18084;SDS011;9169;44.492;11.372;2022-10-16T10:24:17;97.10;;;34.23;;
18084;SDS011;9169;44.492;11.372;2022-10-16T10:26:48;106.07;;;49.77;;
18084;SDS011;9169;44.492;11.372;2022-10-16T10:29:34;105.00;;;49.90;;
18084;SDS011;9169;44.492;11.372;2022-10-16T10:32:15;109.73;;;59.27;;
18084;SDS011;9169;44.492;11.372;2022-10-16T10:34:54;100.30;;;47.00;;
18084;SDS011;9169;44.492;11.372;2022-10-16T10:37:42;105.57;;;54.23;;
18084;SDS011;9169;44.492;11.372;2022-10-16T10:40:24;103.60;;;51.27;;
18084;SDS011;9169;44.492;11.372;2022-10-16T10:43:00;104.70;;;49.90;;
18084;SDS011;9169;44.492;11.372;2022-10-16T10:45:41;104.70;;;51.67;;
18084;SDS011;9169;44.492;11.372;2022-10-16T10:48:13;105.00;;;51.53;;
18084;SDS011;9169;44.492;11.372;2022-10-16T10:50:48;105.80;;;53.87;;
18084;SDS011;9169;44.492;11.372;2022-10-16T10:53:24;107.13;;;56.27;;
18084;SDS011;9169;44.492;11.372;2022-10-16T10:56:00;108.57;;;49.33;;
18084;SDS011;9169;44.492;11.372;2022-10-16T10:58:50;98.33;;;39.93;;
18084;SDS011;9169;44.492;11.372;2022-10-16T11:01:29;101.63;;;51.27;;
18084;SDS011;9169;44.492;11.372;2022-10-16T11:04:11;118.83;;;69.03;;
18084;SDS011;9169;44.492;11.372;2022-10-16T11:06:52;126.70;;;83.33;;
18084;SDS011;9169;44.492;11.372;2022-10-16T11:09:24;118.27;;;71.63;;
18084;SDS011;9169;44.492;11.372;2022-10-16T11:11:54;122.80;;;83.20;;
18084;SDS011;9169;44.492;11.372;2022-10-16T11:14:26;123.40;;;82.67;;
18084;SDS011;9169;44.492;11.372;2022-10-16T11:17:00;125.43;;;82.70;;
18084;SDS011;9169;44.492;11.372;2022-10-16T11:19:34;115.30;;;64.17;;
18084;SDS011;9169;44.492;11.372;2022-10-16T11:22:07;123.17;;;86.53;;
18084;SDS011;9169;44.492;11.372;2022-10-16T11:24:41;118.73;;;75.27;;
18084;SDS011;9169;44.492;11.372;2022-10-16T11:27:14;114.97;;;67.93;;
18084;SDS011;9169;44.492;11.372;2022-10-16T11:29:46;126.47;;;87.20;;
18084;SDS011;9169;44.492;11.372;2022-10-16T11:32:24;132.90;;;91.20;;
18084;SDS011;9169;44.492;11.372;2022-10-16T11:34:57;114.87;;;72.73;;
18084;SDS011;9169;44.492;11.372;2022-10-16T11:37:30;124.73;;;84.07;;
18084;SDS011;9169;44.492;11.372;2022-10-16T11:40:03;120.27;;;76.70;;
18084;SDS011;9169;44.492;11.372;2022-10-16T11:42:46;143.90;;;100.37;;
18084;SDS011;9169;44.492;11.372;2022-10-16T11:45:23;121.13;;;78.53;;
18084;SDS011;9169;44.492;11.372;2022-10-16T11:47:57;140.97;;;97.43;;
18084;SDS011;9169;44.492;11.372;2022-10-16T11:50:29;117.43;;;72.70;;
18084;SDS011;9169;44.492;11.372;2022-10-16T11:53:01;112.20;;;69.03;;
18084;SDS011;9169;44.492;11.372;2022-10-16T11:55:39;113.17;;;66.30;;
18084;SDS011;9169;44.492;11.372;2022-10-16T11:58:08;120.80;;;74.80;;
18084;SDS011;9169;44.492;11.372;2022-10-16T12:00:44;112.97;;;68.50;;
18084;SDS011;9169;44.492;11.372;2022-10-16T12:03:22;115.63;;;74.60;;
18084;SDS011;9169;44.492;11.372;2022-10-16T12:08:45;119.37;;;77.33;;
18084;SDS011;9169;44.492;11.372;2022-10-16T12:11:31;117.40;;;76.60;;
18084;SDS011;9169;44.492;11.372;2022-10-16T12:14:05;117.07;;;74.97;;
18084;SDS011;9169;44.492;11.372;2022-10-16T12:16:51;117.23;;;70.33;;
18084;SDS011;9169;44.492;11.372;2022-10-16T12:19:21;112.00;;;69.97;;
18084;SDS011;9169;44.492;11.372;2022-10-16T12:21:49;117.77;;;78.07;;
18084;SDS011;9169;44.492;11.372;2022-10-16T12:24:22;117.00;;;82.93;;
18084;SDS011;9169;44.492;11.372;2022-10-16T12:26:59;109.83;;;66.53;;
18084;SDS011;9169;44.492;11.372;2022-10-16T12:29:30;114.17;;;69.33;;
18084;SDS011;9169;44.492;11.372;2022-10-16T12:32:00;117.67;;;74.80;;
18084;SDS011;9169;44.492;11.372;2022-10-16T12:34:34;116.77;;;83.83;;
18084;SDS011;9169;44.492;11.372;2022-10-16T12:37:10;115.77;;;63.17;;
18084;SDS011;9169;44.492;11.372;2022-10-16T12:39:40;118.67;;;78.30;;
18084;SDS011;9169;44.492;11.372;2022-10-16T12:42:19;108.30;;;64.27;;
18084;SDS011;9169;44.492;11.372;2022-10-16T12:44:49;108.37;;;60.50;;
18084;SDS011;9169;44.492;11.372;2022-10-16T12:47:21;107.30;;;62.53;;
18084;SDS011;9169;44.492;11.372;2022-10-16T12:49:51;109.70;;;66.30;;
18084;SDS011;9169;44.492;11.372;2022-10-16T12:52:25;110.80;;;62.80;;
18084;SDS011;9169;44.492;11.372;2022-10-16T12:54:55;101.27;;;53.70;;
18084;SDS011;9169;44.492;11.372;2022-10-16T12:57:29;96.70;;;43.27;;
18084;SDS011;9169;44.492;11.372;2022-10-16T13:00:06;108.37;;;58.30;;
18084;SDS011;9169;44.492;11.372;2022-10-16T13:02:58;111.77;;;61.50;;
18084;SDS011;9169;44.492;11.372;2022-10-16T13:05:50;98.57;;;43.00;;
18084;SDS011;9169;44.492;11.372;2022-10-16T13:08:36;107.97;;;53.50;;
18084;SDS011;9169;44.492;11.372;2022-10-16T13:11:20;105.77;;;56.30;;
18084;SDS011;9169;44.492;11.372;2022-10-16T13:14:01;102.83;;;51.90;;
18084;SDS011;9169;44.492;11.372;2022-10-16T13:16:40;100.80;;;46.07;;
18084;SDS011;9169;44.492;11.372;2022-10-16T13:19:19;118.23;;;73.30;;
18084;SDS011;9169;44.492;11.372;2022-10-16T13:21:56;113.97;;;74.30;;
18084;SDS011;9169;44.492;11.372;2022-10-16T13:24:36;114.93;;;57.10;;
18084;SDS011;9169;44.492;11.372;2022-10-16T13:27:14;110.10;;;64.87;;
18084;SDS011;9169;44.492;11.372;2022-10-16T13:29:52;105.57;;;57.00;;
18084;SDS011;9169;44.492;11.372;2022-10-16T13:32:26;111.90;;;66.87;;
18084;SDS011;9169;44.492;11.372;2022-10-16T13:34:54;103.37;;;56.13;;
18084;SDS011;9169;44.492;11.372;2022-10-16T13:37:23;101.40;;;48.87;;
18084;SDS011;9169;44.492;11.372;2022-10-16T13:39:50;106.77;;;50.00;;
18084;SDS011;9169;44.492;11.372;2022-10-16T13:42:28;98.47;;;49.07;;
18084;SDS011;9169;44.492;11.372;2022-10-16T13:44:56;102.57;;;49.87;;
18084;SDS011;9169;44.492;11.372;2022-10-16T13:47:23;105.67;;;52.90;;
18084;SDS011;9169;44.492;11.372;2022-10-16T13:49:59;98.73;;;46.40;;
18084;SDS011;9169;44.492;11.372;2022-10-16T13:52:29;96.67;;;41.07;;
18084;SDS011;9169;44.492;11.372;2022-10-16T13:54:56;97.27;;;45.50;;
18084;SDS011;9169;44.492;11.372;2022-10-16T13:57:23;102.20;;;44.30;;
18084;SDS011;9169;44.492;11.372;2022-10-16T13:59:51;98.00;;;46.00;;
18084;SDS011;9169;44.492;11.372;2022-10-16T14:02:21;102.60;;;51.00;;
18084;SDS011;9169;44.492;11.372;2022-10-16T14:04:52;100.40;;;51.53;;
18084;SDS011;9169;44.492;11.372;2022-10-16T14:07:23;103.37;;;51.07;;
18084;SDS011;9169;44.492;11.372;2022-10-16T14:09:53;98.00;;;43.07;;
18084;SDS011;9169;44.492;11.372;2022-10-16T14:12:21;102.60;;;51.60;;
18084;SDS011;9169;44.492;11.372;2022-10-16T14:14:50;106.77;;;58.10;;
18084;SDS011;9169;44.492;11.372;2022-10-16T14:17:20;108.70;;;56.03;;
18084;SDS011;9169;44.492;11.372;2022-10-16T14:19:50;100.87;;;50.23;;
18084;SDS011;9169;44.492;11.372;2022-10-16T14:22:27;99.07;;;43.00;;
18084;SDS011;9169;44.492;11.372;2022-10-16T14:24:58;94.80;;;42.30;;
18084;SDS011;9169;44.492;11.372;2022-10-16T14:27:28;97.07;;;45.80;;
18084;SDS011;9169;44.492;11.372;2022-10-16T14:30:08;105.67;;;55.10;;
18084;SDS011;9169;44.492;11.372;2022-10-16T14:32:40;102.00;;;44.67;;
18084;SDS011;9169;44.492;11.372;2022-10-16T14:35:21;100.03;;;48.27;;
18084;SDS011;9169;44.492;11.372;2022-10-16T14:37:51;103.30;;;45.80;;
18084;SDS011;9169;44.492;11.372;2022-10-16T14:40:20;101.20;;;48.00;;
18084;SDS011;9169;44.492;11.372;2022-10-16T14:42:50;102.70;;;42.60;;
18084;SDS011;9169;44.492;11.372;2022-10-16T14:45:18;106.97;;;58.30;;